SETN Airport Information

Runway Information
Runway 18 Length 7874 ft width 148 ft
Elevation 20 ft Threshold 0 ft Heading 183
Runway 36 Length 7874 ft Width 148 ft
Elevation 32 ft Threshold 0 ft Heading 3
Airport Frequencies
Type RDO Name GUAYAQUIL Frequency 126.9 MHZ
Type TWR Name TACHINA TW Frequency 122.8 MHZ
Airport Navaids
Type NDB Name Esmeraldas Frequency 215 KHZ
Type VOR-DME Name Esmeraldas Frequency 115700 KHZ
Airport Weather Information & NOTAM
ADDS - METARS form results

(1520 UTC 27 February 2020)
Data provider http://aviationweather.gov/metar/data/
 
METAR text: SETN 271500Z VRB03KT 9999 SCT020 BKN100 27/26 Q1014 A2994
Conditions at: SETN (TACHINA , EC) observed 1500 UTC 27 February 2020
Temperature: 27.0°C (81°F)
Dewpoint: 26.0°C (79°F) [RH = 94%]
Pressure (altimeter): 29.94 inches Hg (1014.0 mb)
Winds: variable direction winds at 3 MPH (3 knots; 1.5 m/s)
Visibility: 6 or more miles (10+ km)
Ceiling: 10000 feet AGL
Clouds: scattered clouds at 2000 feet AGL
broken clouds at 10000 feet AGL
Weather: no significant weather observed at this time